Impacts TAF Board
For situational awareness. Not to be used for flight planning purposes.
IDs:

KLGA - New York/La Guardia, NY, US

Issued at 2100 UTC 21 Sep 2021
Updated at 2310 UTC 21 Sep 2021
Potential Impact None Slight Moderate High
Time2251Z 22/00Z 22/01Z 22/02Z 22/03Z 22/04Z 22/05Z 22/06Z 22/07Z 22/08Z 22/09Z 22/10Z 22/11Z 22/12Z>>
Type OBS PRVL PRVL PRVL PRVL PRVL PRVL PRVL PRVL PRVL PRVL PRVL PRVL
  [TEMP]  
PRVL
  [TEMP]  
VIS 10 >6 >6 >6 >6 >6 >6 >6 >6 >6 >6 >6 >6 >6
CIG 250 40 40 -- -- -- -- -- -- 15 15 15 15
  [8]  
15
  [8]  
Cover BKN BKN BKN SCT SCT SCT SCT SCT SCT BKN BKN BKN BKN
  [BKN]  
BKN
  [BKN]  
FltCat VFR VFR VFR VFR VFR VFR VFR VFR VFR MVFR MVFR MVFR MVFR
  [IFR]  
MVFR
  [IFR]  
WX -- -- -- -- -- -- -- -- -- -- -- -- --
  [--]  
--
  [--]  
WDir 130 120 120 110 110 110 110 110 110 120 120 120 120
[120]
120
[120]
WSpd 10 10 10 6 6 6 6 6 6 8 8 8 8
  [8]  
8
  [8]  
WGst -- -- -- -- -- -- -- -- -- -- -- -- --
  [--]  
--
  [--]  
Raw TAF
KLGA 212100Z 2121/2224 VRB04KT P6SM BKN025 BKN040
  FM212130 12010KT P6SM SCT025 BKN040
  FM220200 11006KT P6SM FEW025 SCT040
  FM220800 12008KT P6SM SCT008 BKN015
  TEMPO 2211/2213 BKN008 BKN015
  FM221400 13011G18KT P6SM BKN020
  FM221600 15015G22KT P6SM SCT025 SCT050 BKN250


Raw METAR
KLGA 212251Z 13010KT 10SM FEW020 SCT032 SCT055 BKN250 24/17 A3026 RMK AO2 SLP248 T02390167
KLGA 212151Z 14009KT 10SM SCT019 BKN033 BKN250 24/16 A3027 RMK AO2 SLP251 T02440161
KLGA 212116Z 02004KT 10SM SCT019 BKN033 BKN250 24/18 A3028 RMK AO2 T02440178
KLGA 212051Z VRB04KT 10SM BKN028 BKN038 BKN250 23/18 A3029 RMK AO2 SLP255 T02330183 56013
KLGA 212038Z 04010KT 10SM BKN028 BKN038 BKN250 23/18 A3029 RMK AO2 T02280178

METAR Board
Radar Display
Forecast Discussion
For situational awareness. Not to be used for flight planning purposes.